Time;durP1;ratioP1;P1;durP2;ratioP2;P2;SDS_P1;SDS_P2;PMS_P1;PMS_P2;Temp;Humidity;BMP_temperature;BMP_pressure;BME280_temperature;BME280_humidity;BME280_pressure;Samples;Min_cycle;Max_cycle;Signal;HPM_P1;HPM_P2
2022/03/19 00:01:04;;;;;;;;;9.75;9.00;;;;;10.13;41.70;102947.09;5091230;28;45109;-80
2022/03/19 00:03:31;;;;;;;;;5.00;5.00;;;;;10.26;42.10;102977.03;5090704;28;45138;-80
2022/03/19 00:05:56;;;;;;;;;7.75;6.75;;;;;10.17;41.92;102959.66;5091316;28;45062;-80
2022/03/19 00:08:22;;;;;;;;;6.00;6.00;;;;;10.23;42.13;102963.63;5089573;28;45882;-80
2022/03/19 00:10:48;;;;;;;;;9.50;8.25;;;;;10.09;42.15;102951.19;5090736;28;45219;-79
2022/03/19 00:13:14;;;;;;;;;7.00;5.50;;;;;10.15;42.09;102956.91;5090534;27;45153;-80
2022/03/19 00:15:40;;;;;;;;;4.00;4.00;;;;;10.16;42.25;102965.72;5090352;28;45156;-80
2022/03/19 00:18:06;;;;;;;;;7.25;6.00;;;;;10.14;42.37;102957.69;5091046;27;45543;-80
2022/03/19 00:20:33;;;;;;;;;8.00;7.50;;;;;9.97;42.07;102934.56;5090821;28;45509;-80
2022/03/19 00:22:59;;;;;;;;;9.25;9.00;;;;;9.99;42.33;102938.22;5090023;27;45150;-80
2022/03/19 00:25:24;;;;;;;;;1.00;0.00;;;;;10.07;42.30;102958.06;5090521;28;45224;-80
2022/03/19 00:27:49;;;;;;;;;8.00;8.00;;;;;10.04;42.00;102955.22;5091193;28;45288;-80
2022/03/19 00:30:15;;;;;;;;;8.33;7.67;;;;;10.03;42.35;102956.03;5089613;28;45005;-80
2022/03/19 00:32:40;;;;;;;;;8.75;8.00;;;;;10.01;42.29;102955.91;5090585;28;45579;-80
2022/03/19 00:35:07;;;;;;;;;8.50;8.00;;;;;9.99;42.14;102953.97;5089914;27;45211;-80
2022/03/19 00:37:42;;;;;;;;;9.25;8.75;;;;;9.93;42.16;102943.94;5087763;28;45533;-80
2022/03/19 00:40:08;;;;;;;;;8.75;8.00;;;;;9.96;42.46;102953.75;5070510;28;45006;-80
2022/03/19 00:42:33;;;;;;;;;5.00;4.00;;;;;9.82;42.19;102931.75;5070233;28;45076;-80
2022/03/19 00:44:58;;;;;;;;;9.67;8.00;;;;;9.87;42.36;102934.72;5086486;28;45332;-80
2022/03/19 00:47:24;;;;;;;;;10.00;9.33;;;;;9.81;42.23;102936.09;5089806;28;47752;-80
2022/03/19 00:49:49;;;;;;;;;9.00;9.00;;;;;9.74;42.48;102930.25;5090158;28;45050;-79
2022/03/19 00:52:14;;;;;;;;;5.00;5.00;;;;;9.87;42.35;102956.63;5088908;27;48199;-80
2022/03/19 00:54:39;;;;;;;;;7.67;7.67;;;;;9.87;42.73;102953.09;5090131;27;45181;-80
2022/03/19 00:57:05;;;;;;;;;6.33;6.33;;;;;9.59;42.62;102909.06;5090506;28;45932;-80
2022/03/19 00:59:30;;;;;;;;;8.50;8.25;;;;;9.67;42.71;102913.16;5089694;27;45170;-80
2022/03/19 01:01:56;;;;;;;;;6.67;6.67;;;;;9.68;42.68;102921.94;5090439;27;44990;-80
2022/03/19 01:04:21;;;;;;;;;8.25;8.25;;;;;9.79;42.65;102950.81;5090154;28;45285;-80
2022/03/19 01:06:47;;;;;;;;;5.50;5.50;;;;;9.68;42.53;102920.22;5089488;27;45158;-80
2022/03/19 01:09:12;;;;;;;;;5.75;5.00;;;;;9.68;42.72;102930.72;5089572;28;45095;-80
2022/03/19 01:11:37;;;;;;;;;6.33;5.00;;;;;9.65;42.70;102933.13;5090400;28;45588;-80
2022/03/19 01:14:03;;;;;;;;;8.00;7.00;;;;;9.63;42.72;102924.22;5090110;28;45099;-80
2022/03/19 01:16:28;;;;;;;;;5.50;5.25;;;;;9.61;42.42;102930.19;5089391;28;46039;-80
2022/03/19 01:18:53;;;;;;;;;8.75;8.00;;;;;9.71;42.77;102945.81;5090601;28;45305;-80
2022/03/19 01:21:19;;;;;;;;;8.00;5.00;;;;;9.69;42.92;102944.78;5089591;28;45057;-80
2022/03/19 01:23:45;;;;;;;;;5.00;5.00;;;;;9.67;42.69;102942.03;5089581;28;45173;-80
2022/03/19 01:26:10;;;;;;;;;5.25;5.25;;;;;9.65;42.87;102946.25;5089334;28;45092;-80
2022/03/19 01:28:36;;;;;;;;;8.25;8.00;;;;;9.51;42.68;102926.88;5087087;28;45001;-79
2022/03/19 01:31:02;;;;;;;;;7.50;7.00;;;;;9.51;42.75;102931.22;5090267;28;45039;-80
2022/03/19 01:33:27;;;;;;;;;6.25;6.25;;;;;9.50;42.89;102921.50;5089703;28;45020;-80
2022/03/19 01:35:52;;;;;;;;;8.00;6.25;;;;;9.59;42.92;102945.81;5089613;28;45655;-80
2022/03/19 01:38:18;;;;;;;;;4.67;4.67;;;;;9.46;42.93;102922.09;5088941;28;44863;-80
2022/03/19 01:40:43;;;;;;;;;5.25;5.25;;;;;9.40;43.07;102917.28;5089529;28;45230;-80
2022/03/19 01:43:09;;;;;;;;;6.25;5.00;;;;;9.52;42.88;102936.56;5089231;28;45316;-80
2022/03/19 01:45:34;;;;;;;;;10.25;5.75;;;;;9.49;42.92;102935.44;5089237;28;45665;-80
2022/03/19 01:47:59;;;;;;;;;4.33;4.00;;;;;9.26;42.92;102895.28;5089657;28;45167;-80
2022/03/19 01:50:26;;;;;;;;;5.00;4.75;;;;;9.49;43.10;102927.56;5089059;28;45149;-80
2022/03/19 01:52:52;;;;;;;;;4.75;4.75;;;;;9.47;42.97;102922.19;5089441;28;45168;-80
2022/03/19 01:55:24;;;;;;;;;10.00;5.00;;;;;9.44;42.81;102924.59;5088162;27;45512;-80
2022/03/19 01:57:51;;;;;;;;;4.25;4.25;;;;;9.42;43.09;102920.03;5088142;28;46195;-80
2022/03/19 02:00:19;;;;;;;;;6.00;5.50;;;;;9.39;42.89;102920.72;5089440;27;45319;-80
2022/03/19 02:02:46;;;;;;;;;7.50;7.50;;;;;9.19;42.91;102866.75;5089592;28;45115;-80
2022/03/19 02:05:20;;;;;;;;;5.00;4.00;;;;;9.32;42.65;102897.44;5088004;28;45792;-80
2022/03/19 02:07:48;;;;;;;;;4.75;4.00;;;;;9.20;43.16;102886.94;5088874;28;45028;-80
2022/03/19 02:10:15;;;;;;;;;5.75;4.50;;;;;9.16;43.28;102870.84;5087944;28;44947;-80
2022/03/19 02:12:41;;;;;;;;;5.25;4.25;;;;;9.28;43.02;102900.63;5088414;27;45406;-80
2022/03/19 02:15:09;;;;;;;;;6.50;5.00;;;;;9.18;43.38;102887.63;5089081;28;45570;-80
2022/03/19 02:17:34;;;;;;;;;7.00;5.00;;;;;9.24;43.42;102895.97;5076382;28;45427;-80
2022/03/19 02:20:01;;;;;;;;;6.00;4.00;;;;;9.18;43.18;102885.00;5088874;28;45028;-80
2022/03/19 02:22:27;;;;;;;;;8.00;6.75;;;;;9.08;43.35;102872.94;5088293;28;45206;-80
2022/03/19 02:27:38;;;;;;;;;8.50;6.50;;;;;9.13;43.48;102887.28;5088404;28;45466;-80
2022/03/19 02:30:07;;;;;;;;;6.00;6.00;;;;;9.12;43.52;102867.13;5088760;28;45069;-80
2022/03/19 02:32:34;;;;;;;;;7.50;5.75;;;;;9.15;43.61;102883.06;5087700;28;45100;-80
2022/03/19 02:34:59;;;;;;;;;6.00;5.00;;;;;9.02;43.55;102868.13;5088431;28;45124;-80
2022/03/19 02:37:25;;;;;;;;;7.25;7.00;;;;;9.08;43.71;102865.06;5086753;28;45449;-80
2022/03/19 02:39:50;;;;;;;;;8.25;6.50;;;;;9.09;43.55;102874.75;5088679;27;44973;-80
2022/03/19 02:42:18;;;;;;;;;7.25;7.25;;;;;8.95;43.80;102844.84;5088274;28;47061;-80
2022/03/19 02:44:44;;;;;;;;;7.00;5.00;;;;;8.98;44.03;102857.28;5089230;28;45019;-80
2022/03/19 02:47:10;;;;;;;;;7.75;6.50;;;;;9.06;43.87;102864.00;5088466;28;45513;-80
2022/03/19 02:49:35;;;;;;;;;8.00;7.25;;;;;9.05;44.01;102864.81;5088532;28;45127;-80
2022/03/19 02:52:02;;;;;;;;;8.75;7.50;;;;;9.02;44.26;102865.50;5088678;28;45334;-80
2022/03/19 02:54:30;;;;;;;;;8.75;8.00;;;;;9.02;44.63;102870.75;5087482;28;47601;-80
2022/03/19 02:56:57;;;;;;;;;9.75;9.00;;;;;9.01;44.48;102868.00;5069800;28;45060;-80
2022/03/19 02:59:31;;;;;;;;;9.00;9.00;;;;;8.99;44.39;102865.28;5088108;28;45588;-79
2022/03/19 03:02:00;;;;;;;;;8.00;7.00;;;;;8.86;44.51;102843.25;5089106;28;45026;-79
2022/03/19 03:04:26;;;;;;;;;8.50;8.50;;;;;8.96;44.55;102857.16;5086063;28;45324;-80
2022/03/19 03:06:54;;;;;;;;;10.00;8.75;;;;;8.90;44.54;102856.72;5089003;27;45742;-80
2022/03/19 03:09:23;;;;;;;;;8.75;8.00;;;;;8.95;44.50;102859.69;5087274;28;45493;-80
2022/03/19 03:11:49;;;;;;;;;9.25;9.00;;;;;8.83;44.57;102841.31;5091184;27;45024;-79
2022/03/19 03:14:14;;;;;;;;;6.50;6.50;;;;;8.78;44.58;102833.13;5091385;27;45137;-80
2022/03/19 03:16:41;;;;;;;;;10.75;9.75;;;;;8.78;44.82;102832.22;5091954;27;45125;-80
2022/03/19 03:19:09;;;;;;;;;11.00;10.75;;;;;8.89;44.91;102861.84;5091512;28;45014;-80
2022/03/19 03:21:36;;;;;;;;;7.25;7.25;;;;;8.81;45.51;102844.63;5091233;28;45225;-80
2022/03/19 03:24:03;;;;;;;;;9.00;8.50;;;;;8.87;45.26;102853.88;5090681;28;45684;-80
2022/03/19 03:26:29;;;;;;;;;13.00;9.75;;;;;8.74;44.59;102833.66;5090739;28;45264;-80
2022/03/19 03:28:54;;;;;;;;;11.75;11.25;;;;;8.76;45.04;102834.69;5091616;28;45331;-80
2022/03/19 03:31:20;;;;;;;;;12.00;10.25;;;;;8.68;45.36;102827.06;5091190;28;45013;-80
2022/03/19 03:33:46;;;;;;;;;10.00;9.25;;;;;8.79;45.20;102848.03;5090674;28;45238;-80
2022/03/19 03:36:12;;;;;;;;;11.50;11.25;;;;;8.77;45.48;102841.78;5091039;28;45297;-80
2022/03/19 03:38:37;;;;;;;;;14.00;12.00;;;;;8.63;45.55;102816.22;5091022;28;45187;-80
2022/03/19 03:41:03;;;;;;;;;12.75;10.00;;;;;8.64;45.62;102822.38;5090616;28;45105;-80
2022/03/19 03:43:29;;;;;;;;;6.75;5.75;;;;;8.61;45.69;102819.53;5091079;28;45867;-80
2022/03/19 03:45:55;;;;;;;;;14.25;12.75;;;;;8.69;45.61;102837.66;5090803;28;45095;-80
2022/03/19 03:48:20;;;;;;;;;16.00;15.00;;;;;8.71;46.15;102846.53;5090367;28;45150;-80
2022/03/19 03:50:49;;;;;;;;;15.50;14.00;;;;;8.56;46.02;102816.53;5091277;28;45112;-79
2022/03/19 03:53:14;;;;;;;;;12.25;10.75;;;;;8.59;46.18;102832.53;5088170;28;45351;-80
2022/03/19 03:55:40;;;;;;;;;11.50;11.25;;;;;8.67;46.32;102847.13;5090061;28;45143;-80
2022/03/19 03:58:05;;;;;;;;;13.00;10.25;;;;;8.66;46.48;102852.22;5091009;28;45220;-80
2022/03/19 04:00:32;;;;;;;;;13.50;12.75;;;;;8.65;46.76;102853.94;5090668;28;45143;-80
2022/03/19 04:02:58;;;;;;;;;16.75;15.00;;;;;8.64;46.84;102854.75;5090730;28;45536;-80
2022/03/19 04:05:23;;;;;;;;;16.50;14.75;;;;;8.50;46.60;102830.09;5090443;28;45148;-80
2022/03/19 04:07:48;;;;;;;;;15.00;13.75;;;;;8.48;46.78;102826.47;5090838;28;45136;-80
2022/03/19 04:10:14;;;;;;;;;19.75;14.00;;;;;8.61;46.77;102848.34;5090302;28;45378;-80
2022/03/19 04:12:39;;;;;;;;;15.25;14.25;;;;;8.49;46.66;102835.25;5090175;27;45304;-80
2022/03/19 04:15:06;;;;;;;;;19.50;17.75;;;;;8.57;46.92;102846.28;5090829;28;45173;-80
2022/03/19 04:17:35;;;;;;;;;18.25;15.75;;;;;8.60;47.34;102847.44;5091271;27;45155;-80
2022/03/19 04:20:00;;;;;;;;;19.50;17.25;;;;;8.60;47.13;102843.91;5089990;27;45143;-80
2022/03/19 04:22:34;;;;;;;;;17.25;15.00;;;;;8.50;47.36;102831.81;5089753;28;45147;-80
2022/03/19 04:24:59;;;;;;;;;18.75;17.25;;;;;8.44;47.30;102818.25;5090302;27;45458;-80
2022/03/19 04:27:24;;;;;;;;;21.00;17.00;;;;;8.55;47.09;102845.28;5089965;28;45000;-80
2022/03/19 04:29:50;;;;;;;;;18.67;15.00;;;;;8.53;47.60;102851.31;5090583;28;46743;-79
2022/03/19 04:32:15;;;;;;;;;17.25;15.25;;;;;8.51;47.58;102842.41;5090125;28;45374;-80
2022/03/19 04:34:41;;;;;;;;;17.33;15.00;;;;;8.49;47.12;102843.09;5089826;28;48653;-80
2022/03/19 04:37:07;;;;;;;;;17.67;15.33;;;;;8.34;47.30;102826.16;5090167;28;45865;-80
2022/03/19 04:39:32;;;;;;;;;19.75;17.00;;;;;8.47;47.70;102847.28;5089909;28;45289;-80
2022/03/19 04:41:57;;;;;;;;;17.00;15.75;;;;;8.45;47.36;102855.03;5088081;27;45191;-79
2022/03/19 04:44:23;;;;;;;;;14.67;14.33;;;;;8.43;47.54;102848.78;5090281;27;45360;-80
2022/03/19 04:46:48;;;;;;;;;18.50;15.75;;;;;8.42;48.00;102851.25;5090296;28;45054;-80
2022/03/19 04:49:13;;;;;;;;;16.00;14.00;;;;;8.30;47.81;102834.59;5089745;28;45378;-80
2022/03/19 04:51:39;;;;;;;;;20.33;17.33;;;;;8.35;47.98;102849.84;5090017;28;45853;-80
2022/03/19 04:54:05;;;;;;;;;19.75;17.25;;;;;8.25;47.91;102827.28;5089537;28;45558;-80
2022/03/19 04:56:31;;;;;;;;;20.75;19.75;;;;;8.36;47.82;102845.53;5089873;28;45252;-80
2022/03/19 04:58:58;;;;;;;;;19.50;16.00;;;;;8.35;47.95;102843.72;5090319;28;45092;-80
2022/03/19 05:01:26;;;;;;;;;19.00;17.25;;;;;8.30;47.94;102837.19;5089973;28;45557;-80
2022/03/19 05:03:51;;;;;;;;;18.75;15.00;;;;;8.28;48.38;102843.25;5089402;28;45436;-80
2022/03/19 05:06:16;;;;;;;;;19.25;18.50;;;;;8.09;48.34;102807.66;5090161;27;45178;-80
2022/03/19 05:08:42;;;;;;;;;20.67;18.67;;;;;8.11;48.74;102806.97;5089928;28;45359;-80
2022/03/19 05:11:13;;;;;;;;;23.00;20.00;;;;;8.18;48.58;102825.00;5088728;28;45212;-80
2022/03/19 05:13:44;;;;;;;;;25.50;21.50;;;;;8.17;48.76;102817.91;5076778;28;45497;-80
2022/03/19 05:16:09;;;;;;;;;19.75;18.00;;;;;7.93;48.70;102779.34;5088460;27;45099;-80
2022/03/19 05:18:35;;;;;;;;;21.75;19.50;;;;;8.07;48.94;102803.97;5088724;27;45075;-80
2022/03/19 05:21:01;;;;;;;;;24.50;21.25;;;;;8.10;49.21;102819.94;5089798;28;45757;-80
2022/03/19 05:23:26;;;;;;;;;23.50;19.25;;;;;8.01;49.23;102809.66;5088430;28;45930;-80
2022/03/19 05:25:52;;;;;;;;;28.67;22.00;;;;;8.11;49.30;102827.91;5089137;27;45281;-80
2022/03/19 05:28:18;;;;;;;;;26.50;21.25;;;;;8.07;49.36;102838.94;5088818;28;45166;-80
2022/03/19 05:30:43;;;;;;;;;29.50;24.25;;;;;7.97;49.61;102821.59;5088653;28;45231;-80
2022/03/19 05:33:10;;;;;;;;;25.75;22.00;;;;;7.99;49.53;102829.59;5088906;28;45071;-80
2022/03/19 05:35:36;;;;;;;;;25.75;24.00;;;;;7.94;50.26;102829.22;5089004;27;45404;-81
2022/03/19 05:38:01;;;;;;;;;25.25;24.00;;;;;7.92;49.83;102815.06;5089195;28;45166;-80
2022/03/19 05:40:28;;;;;;;;;24.25;20.75;;;;;8.07;49.91;102851.13;5069998;28;47585;-80
2022/03/19 05:42:53;;;;;;;;;31.00;26.00;;;;;7.93;50.24;102819.56;5089795;28;45071;-80
2022/03/19 05:45:20;;;;;;;;;31.75;26.00;;;;;8.02;50.28;102829.81;5089536;28;45299;-80
2022/03/19 05:47:46;;;;;;;;;31.00;27.00;;;;;7.91;50.38;102815.88;5089290;28;45061;-80
2022/03/19 05:50:12;;;;;;;;;29.00;24.75;;;;;8.04;50.71;102837.81;5089181;28;45404;-80
2022/03/19 05:52:38;;;;;;;;;25.75;25.00;;;;;8.04;50.71;102848.28;5088794;28;45222;-80
2022/03/19 05:55:03;;;;;;;;;26.75;25.25;;;;;7.92;50.66;102825.56;5070219;28;45469;-80
2022/03/19 05:57:29;;;;;;;;;28.00;26.00;;;;;7.85;50.72;102812.78;5089148;28;45361;-80
2022/03/19 05:59:54;;;;;;;;;26.25;25.25;;;;;7.91;50.78;102826.34;5089304;28;45457;-80
2022/03/19 06:02:20;;;;;;;;;27.33;25.00;;;;;7.97;50.79;102833.78;5088995;28;45130;-80
2022/03/19 06:04:45;;;;;;;;;36.50;29.75;;;;;7.98;51.09;102836.53;5089695;27;45825;-80
2022/03/19 06:07:10;;;;;;;;;35.67;28.33;;;;;7.98;51.33;102847.00;5088906;28;45230;-80
2022/03/19 06:09:36;;;;;;;;;28.00;24.33;;;;;7.93;51.11;102840.50;5087678;28;45885;-80
2022/03/19 06:12:01;;;;;;;;;33.33;30.00;;;;;7.96;51.29;102848.56;5086952;28;47988;-80
2022/03/19 06:14:26;;;;;;;;;35.50;29.75;;;;;7.96;51.66;102840.72;5087249;28;45058;-80
2022/03/19 06:16:52;;;;;;;;;35.00;29.33;;;;;7.93;52.04;102837.88;5089419;27;45118;-80
2022/03/19 06:19:18;;;;;;;;;30.00;29.00;;;;;7.96;51.82;102852.91;5088620;28;45818;-80
2022/03/19 06:21:44;;;;;;;;;31.75;28.25;;;;;7.97;51.92;102847.78;5088786;28;45207;-80
2022/03/19 06:24:10;;;;;;;;;35.00;30.75;;;;;7.90;52.22;102837.63;5088301;28;45076;-80
2022/03/19 06:26:36;;;;;;;;;35.25;32.25;;;;;7.95;51.91;102844.13;5081054;28;45525;-80
2022/03/19 06:29:02;;;;;;;;;35.50;28.00;;;;;7.73;52.54;102807.50;5088255;28;45212;-80
2022/03/19 06:31:28;;;;;;;;;32.25;30.75;;;;;7.98;52.30;102846.09;5080983;28;45850;-80
2022/03/19 06:33:53;;;;;;;;;36.25;30.75;;;;;7.97;52.37;102847.78;5082723;28;45173;-80
2022/03/19 06:39:04;;;;;;;;;36.25;32.75;;;;;8.00;52.53;102836.63;5082017;27;45418;-80
2022/03/19 06:41:29;;;;;;;;;35.50;32.25;;;;;8.08;52.58;102848.66;5088275;27;45229;-80
2022/03/19 06:43:54;;;;;;;;;37.25;32.75;;;;;8.10;52.54;102844.41;5086370;27;45560;-80
2022/03/19 06:46:20;;;;;;;;;38.25;32.50;;;;;8.02;52.75;102828.09;5092062;28;45263;-80
2022/03/19 06:48:46;;;;;;;;;42.00;35.00;;;;;8.14;52.92;102853.44;5091852;27;45129;-80
2022/03/19 06:51:13;;;;;;;;;36.00;32.25;;;;;8.16;52.62;102844.91;5089416;28;45195;-80
2022/03/19 06:53:38;;;;;;;;;41.75;36.50;;;;;8.19;52.79;102850.38;5079257;28;45158;-80
2022/03/19 06:56:05;;;;;;;;;43.00;37.50;;;;;8.15;52.43;102845.69;5091808;28;45273;-80
2022/03/19 06:58:32;;;;;;;;;41.00;33.50;;;;;8.25;52.91;102852.56;5090894;27;45643;-80
2022/03/19 07:00:57;;;;;;;;;51.25;39.25;;;;;8.28;52.88;102848.47;5089309;28;45345;-80
2022/03/19 07:03:23;;;;;;;;;40.00;36.25;;;;;8.31;53.19;102846.88;5073071;28;45179;-79
2022/03/19 07:05:49;;;;;;;;;46.00;38.25;;;;;8.19;52.87;102818.94;5066305;28;45329;-80
2022/03/19 07:08:14;;;;;;;;;55.00;42.00;;;;;8.37;53.10;102836.91;5086224;28;45276;-80
2022/03/19 07:10:42;;;;;;;;;48.33;39.33;;;;;8.39;53.14;102843.19;5085574;27;45482;-80
2022/03/19 07:13:07;;;;;;;;;50.25;39.25;;;;;8.39;53.18;102836.25;5075341;28;45420;-80
2022/03/19 07:15:33;;;;;;;;;45.00;38.33;;;;;8.32;53.12;102817.25;5078077;27;45682;-80
2022/03/19 07:18:00;;;;;;;;;52.75;37.50;;;;;8.31;53.48;102811.09;5083149;27;46290;-80
2022/03/19 07:20:27;;;;;;;;;48.00;41.50;;;;;8.53;53.28;102840.84;5083167;28;45536;-80
2022/03/19 07:22:54;;;;;;;;;50.50;41.50;;;;;8.56;53.32;102834.91;5080076;28;45516;-80
2022/03/19 07:25:22;;;;;;;;;50.25;39.50;;;;;8.56;53.08;102829.66;5090090;28;45137;-79
2022/03/19 07:27:49;;;;;;;;;48.75;42.00;;;;;8.64;53.28;102827.63;5086827;27;45634;-79
2022/03/19 07:30:15;;;;;;;;;54.50;44.25;;;;;8.53;53.43;102801.53;5091085;28;45461;-80
2022/03/19 07:32:40;;;;;;;;;53.00;42.75;;;;;8.56;53.29;102800.81;5086685;28;45600;-81
2022/03/19 07:35:07;;;;;;;;;55.75;45.00;;;;;8.75;53.45;102827.63;5089760;28;45364;-80
2022/03/19 07:37:33;;;;;;;;;53.75;42.50;;;;;8.78;53.42;102833.13;5085889;28;45389;-80
2022/03/19 07:39:59;;;;;;;;;51.00;43.00;;;;;8.52;53.20;102767.31;5075740;28;45264;-80
2022/03/19 07:42:25;;;;;;;;;58.00;46.00;;;;;8.86;53.24;102836.28;5071439;28;45211;-80
2022/03/19 07:44:50;;;;;;;;;58.00;45.00;;;;;8.85;53.83;102825.69;5083780;27;45636;-80
2022/03/19 07:47:16;;;;;;;;;54.25;43.00;;;;;8.97;53.75;102839.75;5079982;28;45841;-81
2022/03/19 07:49:42;;;;;;;;;59.00;46.50;;;;;8.94;53.58;102827.31;5080171;28;45493;-80
2022/03/19 07:52:09;;;;;;;;;58.33;46.67;;;;;8.87;53.63;102803.16;5090316;28;45334;-81
2022/03/19 07:54:36;;;;;;;;;57.00;45.75;;;;;9.00;53.60;102814.63;5073570;28;45412;-80
2022/03/19 07:57:02;;;;;;;;;56.00;44.75;;;;;9.01;53.61;102813.88;5082504;28;45989;-80
2022/03/19 07:59:27;;;;;;;;;57.25;45.50;;;;;9.20;53.85;102830.94;5088450;28;45323;-80
2022/03/19 08:01:53;;;;;;;;;60.75;48.00;;;;;9.21;53.68;102815.31;5076602;28;45447;-80
2022/03/19 08:04:18;;;;;;;;;64.75;51.00;;;;;9.29;53.50;102821.13;5068472;28;45939;-80
2022/03/19 08:06:44;;;;;;;;;58.50;48.25;;;;;9.21;54.01;102796.97;5071193;27;45593;-80
2022/03/19 08:09:10;;;;;;;;;55.75;45.25;;;;;9.40;53.73;102817.53;5083222;28;45059;-80
2022/03/19 08:11:36;;;;;;;;;62.00;49.75;;;;;9.31;53.90;102793.28;5081374;27;45152;-80
2022/03/19 08:14:03;;;;;;;;;62.25;49.25;;;;;9.29;53.69;102773.88;5085395;28;45178;-80
2022/03/19 08:16:28;;;;;;;;;65.25;48.50;;;;;9.50;53.77;102806.91;5088375;28;45763;-80
2022/03/19 08:18:54;;;;;;;;;62.25;48.00;;;;;9.52;53.78;102807.94;5089401;28;45187;-80
2022/03/19 08:21:19;;;;;;;;;63.00;48.00;;;;;9.66;53.92;102819.44;5070634;28;45271;-80
2022/03/19 08:23:48;;;;;;;;;64.75;49.50;;;;;9.75;53.62;102819.16;5070163;28;45408;-80
2022/03/19 08:26:14;;;;;;;;;61.75;50.25;;;;;9.73;53.70;102807.66;5086437;28;45689;-81
2022/03/19 08:28:39;;;;;;;;;55.25;45.50;;;;;9.68;53.54;102786.31;5090264;27;44925;-81
2022/03/19 08:31:05;;;;;;;;;64.50;50.75;;;;;9.65;53.37;102782.56;5087991;27;45373;-81
2022/03/19 08:33:31;;;;;;;;;63.75;51.25;;;;;9.70;53.44;102776.81;5086863;27;45175;-81
2022/03/19 08:35:56;;;;;;;;;68.00;51.00;;;;;9.54;53.62;102742.44;5086786;27;45229;-81
2022/03/19 08:41:06;;;;;;;;;70.75;51.50;;;;;10.13;53.92;102806.09;5085598;27;45087;-79
2022/03/19 08:43:32;;;;;;;;;68.75;52.25;;;;;10.18;53.65;102801.16;5089560;27;45270;-80
2022/03/19 08:45:57;;;;;;;;;64.50;50.25;;;;;10.28;53.55;102796.69;5073521;28;47106;-80
2022/03/19 08:48:23;;;;;;;;;69.25;53.50;;;;;10.23;53.12;102777.03;5089801;28;45488;-80
2022/03/19 08:50:48;;;;;;;;;70.75;51.25;;;;;10.43;53.03;102791.56;5089925;27;45650;-80
2022/03/19 08:53:15;;;;;;;;;69.67;53.67;;;;;10.43;53.37;102799.44;5089034;28;45261;-80
2022/03/19 08:55:41;;;;;;;;;65.00;51.25;;;;;10.57;52.94;102795.13;5087837;27;45651;-80
2022/03/19 08:58:07;;;;;;;;;70.00;52.75;;;;;10.53;52.78;102779.94;5090051;28;45101;-81
2022/03/19 09:00:32;;;;;;;;;65.00;51.00;;;;;10.67;52.72;102792.31;5089787;28;45343;-80
2022/03/19 09:02:58;;;;;;;;;66.75;50.50;;;;;10.80;52.55;102801.94;5089762;28;45281;-80
2022/03/19 09:05:23;;;;;;;;;65.33;52.00;;;;;10.75;52.54;102779.69;5070407;28;47244;-80
2022/03/19 09:07:49;;;;;;;;;66.25;51.00;;;;;10.91;52.54;102792.13;5088715;28;45357;-80
2022/03/19 09:10:15;;;;;;;;;67.00;50.50;;;;;10.80;51.76;102773.91;5088030;28;45148;-80
2022/03/19 09:12:41;;;;;;;;;67.00;51.75;;;;;10.96;51.57;102794.25;5089613;27;45307;-78
2022/03/19 09:15:10;;;;;;;;;61.75;50.25;;;;;10.83;51.61;102758.31;5089008;28;45740;-80
2022/03/19 09:17:35;;;;;;;;;64.75;51.50;;;;;11.10;51.64;102795.16;5089717;28;44993;-80
2022/03/19 09:20:01;;;;;;;;;61.00;50.25;;;;;11.17;51.24;102785.91;5089348;28;45191;-81
2022/03/19 09:22:26;;;;;;;;;70.25;54.25;;;;;11.22;51.53;102788.03;5086935;27;45350;-80
2022/03/19 09:24:51;;;;;;;;;61.67;51.33;;;;;11.15;51.24;102775.31;5089452;28;47037;-80
2022/03/19 09:27:17;;;;;;;;;65.50;51.75;;;;;11.34;51.13;102783.56;5089239;28;45013;-80
2022/03/19 09:29:42;;;;;;;;;61.50;49.00;;;;;11.41;50.88;102770.78;5089263;27;45009;-80
2022/03/19 09:32:10;;;;;;;;;70.33;53.00;;;;;11.46;50.62;102778.16;5089776;27;45312;-80
2022/03/19 09:34:35;;;;;;;;;64.50;50.00;;;;;11.34;50.49;102751.09;5088979;27;45546;-80
2022/03/19 09:37:01;;;;;;;;;68.00;53.50;;;;;11.54;50.40;102779.56;5088624;28;45137;-80
2022/03/19 09:39:26;;;;;;;;;67.25;51.75;;;;;11.48;49.95;102762.50;5089297;28;45033;-80
2022/03/19 09:41:51;;;;;;;;;61.25;49.25;;;;;11.62;49.92;102774.78;5090216;28;45443;-80
2022/03/19 09:44:17;;;;;;;;;64.00;51.00;;;;;11.67;50.19;102775.06;5089037;28;45671;-80
2022/03/19 09:46:46;;;;;;;;;64.00;51.75;;;;;11.78;49.89;102771.41;5089774;28;45277;-80
2022/03/19 09:49:11;;;;;;;;;65.00;51.25;;;;;11.83;49.83;102763.00;5089116;28;45132;-80
2022/03/19 09:51:40;;;;;;;;;60.25;49.00;;;;;11.71;49.57;102742.84;5088805;28;44984;-80
2022/03/19 09:54:09;;;;;;;;;59.50;47.75;;;;;11.97;49.34;102762.91;5088667;28;45209;-80
2022/03/19 09:56:36;;;;;;;;;64.00;51.50;;;;;12.02;49.18;102769.38;5088871;28;45062;-80
2022/03/19 09:59:02;;;;;;;;;66.50;50.25;;;;;12.01;48.80;102757.91;5088953;28;45198;-80
2022/03/19 10:01:31;;;;;;;;;59.00;48.00;;;;;12.08;48.90;102759.22;5088943;27;44974;-80
2022/03/19 10:04:04;;;;;;;;;62.00;51.50;;;;;12.12;48.86;102761.25;5089131;28;45294;-81
2022/03/19 10:09:20;;;;;;;;;62.50;49.75;;;;;12.25;48.79;102754.97;5088657;28;44957;-80
2022/03/19 10:11:51;;;;;;;;;61.25;49.50;;;;;12.24;48.61;102732.97;5089268;28;44959;-81
2022/03/19 10:14:22;;;;;;;;;64.50;51.25;;;;;12.28;48.33;102718.25;5088253;27;46166;-81
2022/03/19 10:16:49;;;;;;;;;62.25;49.00;;;;;12.49;48.37;102744.97;5085965;27;45636;-80
2022/03/19 10:19:15;;;;;;;;;67.75;49.75;;;;;12.43;48.45;102718.25;5088906;28;45320;-80
2022/03/19 10:21:41;;;;;;;;;67.00;51.25;;;;;12.54;48.41;102730.31;5088957;28;45452;-80
2022/03/19 10:24:18;;;;;;;;;64.50;51.50;;;;;12.65;47.96;102729.19;5088169;28;46405;-81
2022/03/19 10:26:48;;;;;;;;;62.50;49.25;;;;;12.64;47.78;102724.75;5089082;28;45462;-80
2022/03/19 10:29:14;;;;;;;;;52.25;42.50;;;;;12.61;47.72;102711.38;5088552;28;45100;-80
2022/03/19 10:31:46;;;;;;;;;61.25;48.25;;;;;12.63;47.61;102696.56;5088856;28;45209;-80
2022/03/19 10:34:13;;;;;;;;;61.75;50.00;;;;;12.73;47.38;102712.09;5088173;28;45121;-80
2022/03/19 10:36:41;;;;;;;;;65.25;50.50;;;;;12.97;47.32;102724.88;5088700;28;45488;-81
2022/03/19 10:39:27;;;;;;;;;62.75;49.25;;;;;13.05;46.98;102723.56;5088164;28;45206;-80
2022/03/19 10:41:57;;;;;;;;;64.25;50.50;;;;;13.07;46.90;102704.34;5088362;28;45043;-80
2022/03/19 10:44:27;;;;;;;;;59.75;46.00;;;;;13.16;47.03;102704.88;5087418;27;46981;-79
2022/03/19 10:46:54;;;;;;;;;61.75;48.25;;;;;13.28;46.95;102717.84;5088203;28;45088;-81
2022/03/19 10:49:23;;;;;;;;;65.50;51.25;;;;;13.34;46.60;102714.63;5088592;27;45341;-80
2022/03/19 10:51:51;;;;;;;;;59.25;48.75;;;;;13.24;45.99;102685.91;5088490;28;45401;-80
2022/03/19 10:54:17;;;;;;;;;62.00;49.50;;;;;13.39;45.77;102711.41;5087508;28;45665;-80
2022/03/19 10:56:44;;;;;;;;;57.75;45.50;;;;;13.36;45.66;102700.72;5088274;28;45055;-79
2022/03/19 10:59:10;;;;;;;;;61.25;49.00;;;;;13.46;45.39;102711.78;5088447;28;45454;-80
2022/03/19 11:01:37;;;;;;;;;63.25;51.25;;;;;13.54;45.49;102710.44;5088395;28;45213;-81
2022/03/19 11:04:05;;;;;;;;;63.25;50.00;;;;;13.64;45.71;102702.19;5088469;28;45835;-80
2022/03/19 11:06:36;;;;;;;;;62.75;49.25;;;;;13.65;45.83;102688.16;5087985;28;45216;-81
2022/03/19 11:09:09;;;;;;;;;59.25;48.00;;;;;13.65;45.70;102669.66;5087911;28;45181;-80
2022/03/19 11:12:17;;;;;;;;;65.00;50.25;;;;;13.92;45.56;102697.53;5088286;28;45005;-81
2022/03/19 11:14:44;;;;;;;;;62.75;48.75;;;;;13.97;45.33;102688.94;5062441;28;45606;-80
2022/03/19 11:17:30;;;;;;;;;60.25;48.00;;;;;13.93;45.20;102680.84;5082075;28;45230;-80
2022/03/19 11:20:01;;;;;;;;;60.50;49.25;;;;;14.11;44.94;102687.91;5079609;28;45171;-80
2022/03/19 11:22:39;;;;;;;;;58.75;48.00;;;;;14.06;45.00;102666.53;5088432;28;45153;-81
2022/03/19 11:25:16;;;;;;;;;61.00;47.25;;;;;14.24;44.51;102685.06;5077587;28;46536;-80
2022/03/19 11:27:46;;;;;;;;;61.50;47.50;;;;;14.16;44.63;102660.88;5080817;28;45858;-81